Time;durP1;ratioP1;P1;durP2;ratioP2;P2;SDS_P1;SDS_P2;PMS_P1;PMS_P2;Temp;Humidity;BMP_temperature;BMP_pressure;BME280_temperature;BME280_humidity;BME280_pressure;Samples;Min_cycle;Max_cycle;Signal;HPM_P1;HPM_P2
2021/03/15 00:02:01;;;;;;;5.85;3.33;;;5.00;99.90;;;;;;4885111;29;20042;-84
2021/03/15 00:04:50;;;;;;;6.88;4.22;;;5.20;99.90;;;;;;4868261;29;20081;-84
2021/03/15 00:07:25;;;;;;;6.50;3.67;;;5.10;99.90;;;;;;4866328;29;20057;-84
2021/03/15 00:09:56;;;;;;;7.97;3.47;;;5.20;99.90;;;;;;4869227;29;20061;-84
2021/03/15 00:12:27;;;;;;;7.40;3.72;;;5.20;99.90;;;;;;4882545;29;20046;-84
2021/03/15 00:14:56;;;;;;;8.43;3.47;;;5.20;99.90;;;;;;4868538;29;20063;-84
2021/03/15 00:17:44;;;;;;;9.15;3.25;;;5.20;99.90;;;;;;4889589;29;20048;-84
2021/03/15 00:20:15;;;;;;;12.00;3.72;;;5.10;99.90;;;;;;4885690;29;20065;-85
2021/03/15 00:22:46;;;;;;;8.02;3.38;;;5.20;99.90;;;;;;4882311;29;20053;-84
2021/03/15 00:25:17;;;;;;;5.85;3.42;;;5.10;99.90;;;;;;4897484;29;20059;-85
2021/03/15 00:27:53;;;;;;;7.53;3.50;;;5.20;99.90;;;;;;4882838;29;20057;-83
2021/03/15 00:30:21;;;;;;;6.50;3.70;;;5.10;99.90;;;;;;4898683;29;20060;-83
2021/03/15 00:32:54;;;;;;;7.18;3.88;;;5.10;99.90;;;;;;4899234;29;20049;-84
2021/03/15 00:35:35;;;;;;;8.35;3.97;;;5.10;99.90;;;;;;4882413;29;20060;-85
2021/03/15 00:38:06;;;;;;;6.78;3.78;;;5.10;99.90;;;;;;4866814;29;20065;-83
2021/03/15 00:40:37;;;;;;;8.60;3.40;;;5.10;99.90;;;;;;4893217;29;20071;-84
2021/03/15 00:43:05;;;;;;;5.60;3.38;;;5.20;99.90;;;;;;4885237;29;20056;-84
2021/03/15 00:45:37;;;;;;;8.07;4.05;;;5.20;99.90;;;;;;4899244;29;20072;-84
2021/03/15 00:48:09;;;;;;;6.28;3.10;;;5.20;99.90;;;;;;4884201;29;20061;-84
2021/03/15 00:50:42;;;;;;;7.32;3.20;;;5.10;99.90;;;;;;4898836;29;20061;-84
2021/03/15 00:53:24;;;;;;;8.85;3.78;;;5.10;99.90;;;;;;4898008;29;20057;-84
2021/03/15 00:56:03;;;;;;;5.28;2.78;;;4.90;99.90;;;;;;4897832;29;20053;-84
2021/03/15 00:58:36;;;;;;;8.02;3.70;;;4.90;99.90;;;;;;4897909;29;20052;-84
2021/03/15 01:01:12;;;;;;;7.50;3.97;;;4.80;99.90;;;;;;4882793;29;20057;-83
2021/03/15 01:03:48;;;;;;;7.53;3.58;;;4.80;99.90;;;;;;4899819;29;20053;-84
2021/03/15 01:06:21;;;;;;;10.38;3.85;;;4.80;99.90;;;;;;4883680;29;20060;-84
2021/03/15 01:09:02;;;;;;;8.75;4.40;;;4.70;99.90;;;;;;4884647;29;20063;-83
2021/03/15 01:11:42;;;;;;;8.38;4.55;;;4.70;99.90;;;;;;4878200;29;20067;-83
2021/03/15 01:14:27;;;;;;;11.37;4.90;;;4.70;99.90;;;;;;4861957;29;20053;-83
2021/03/15 01:17:13;;;;;;;11.38;4.40;;;4.70;99.90;;;;;;4876606;29;20049;-84
2021/03/15 01:19:44;;;;;;;7.72;4.18;;;4.70;99.90;;;;;;4867890;29;20061;-83
2021/03/15 01:22:15;;;;;;;9.38;4.05;;;4.80;99.90;;;;;;4884156;29;20053;-83
2021/03/15 01:24:49;;;;;;;7.65;4.20;;;4.80;99.90;;;;;;4897833;29;20060;-83
2021/03/15 01:27:18;;;;;;;6.00;3.50;;;4.70;99.90;;;;;;4878682;29;20053;-83
2021/03/15 01:29:52;;;;;;;7.30;4.50;;;4.70;99.90;;;;;;4896453;29;20089;-83
2021/03/15 01:32:23;;;;;;;12.00;4.25;;;4.70;99.90;;;;;;4896337;29;20057;-84
2021/03/15 01:34:53;;;;;;;10.35;4.80;;;4.60;99.90;;;;;;4894524;29;20049;-84
2021/03/15 01:37:28;;;;;;;8.90;4.05;;;4.70;99.90;;;;;;4865050;29;20065;-83
2021/03/15 01:40:02;;;;;;;10.27;4.75;;;4.70;99.90;;;;;;4865052;29;20061;-84
2021/03/15 01:42:33;;;;;;;12.82;5.20;;;4.60;99.90;;;;;;4864541;29;20057;-83
2021/03/15 01:45:05;;;;;;;8.07;4.18;;;4.60;99.90;;;;;;4881019;29;20041;-84
2021/03/15 01:47:33;;;;;;;;;;;4.60;99.90;;;;;;4870200;29;20064;-84
2021/03/15 01:50:03;;;;;;;8.23;3.87;;;4.50;99.90;;;;;;4880827;29;19923;-83
2021/03/15 01:52:34;;;;;;;15.30;4.27;;;4.50;99.90;;;;;;4878967;29;20288;-84
2021/03/15 01:55:09;;;;;;;11.23;4.90;;;4.50;99.90;;;;;;4911320;29;20052;-84
2021/03/15 01:57:37;;;;;;;12.27;4.43;;;4.40;99.90;;;;;;4880653;29;20064;-83
2021/03/15 02:00:11;;;;;;;9.38;3.97;;;4.40;99.90;;;;;;4897438;29;20056;-84
2021/03/15 02:02:49;;;;;;;8.98;4.90;;;4.50;99.90;;;;;;4882277;29;20135;-84
2021/03/15 02:05:19;;;;;;;11.83;4.63;;;4.40;99.90;;;;;;4883260;29;20059;-83
2021/03/15 02:07:53;;;;;;;6.28;2.13;;;4.50;99.90;;;;;;4883140;29;20056;-84
2021/03/15 02:10:23;;;;;;;12.52;4.10;;;4.60;99.90;;;;;;4880509;29;20067;-82
2021/03/15 02:13:19;;;;;;;6.10;2.47;;;4.50;99.90;;;;;;4879873;29;20048;-84
2021/03/15 02:16:01;;;;;;;7.00;3.47;;;4.50;99.90;;;;;;4878382;29;20073;-83
2021/03/15 02:18:42;;;;;;;8.70;3.58;;;4.50;99.90;;;;;;4892010;29;20057;-83
2021/03/15 02:21:50;;;;;;;12.15;5.30;;;4.50;99.90;;;;;;4878226;29;20061;-83
2021/03/15 02:24:25;;;;;;;14.18;2.97;;;4.40;99.90;;;;;;4894811;29;20048;-83
2021/03/15 02:27:24;;;;;;;9.57;3.17;;;4.50;99.90;;;;;;4894501;29;20052;-83
2021/03/15 02:30:20;;;;;;;9.60;4.87;;;4.50;99.90;;;;;;4866821;29;20067;-83
2021/03/15 02:33:09;;;;;;;12.90;4.43;;;4.40;99.90;;;;;;4887563;29;20059;-83
2021/03/15 02:35:40;;;;;;;11.45;3.78;;;4.40;99.90;;;;;;4887230;29;20071;-82
2021/03/15 02:38:11;;;;;;;7.13;3.20;;;4.40;99.90;;;;;;4903206;29;20049;-83
2021/03/15 02:40:44;;;;;;;11.10;4.43;;;4.40;99.90;;;;;;4886517;29;20060;-83
2021/03/15 02:43:20;;;;;;;8.20;4.00;;;4.40;99.90;;;;;;4903244;29;20057;-83
2021/03/15 02:45:59;;;;;;;11.73;4.80;;;4.40;99.90;;;;;;4903077;29;20047;-82
2021/03/15 02:48:28;;;;;;;9.63;4.97;;;4.40;99.90;;;;;;4888126;29;20052;-83
2021/03/15 02:51:01;;;;;;;9.02;4.45;;;4.40;99.90;;;;;;4898378;29;20060;-83
2021/03/15 02:53:30;;;;;;;16.83;5.77;;;4.40;99.90;;;;;;4898696;29;20056;-84
2021/03/15 02:56:04;;;;;;;9.77;4.30;;;4.40;99.90;;;;;;4899044;29;20063;-83
2021/03/15 02:58:35;;;;;;;10.30;4.60;;;4.40;99.90;;;;;;4898066;29;20067;-83
2021/03/15 03:01:08;;;;;;;13.50;5.37;;;4.30;99.90;;;;;;4899197;29;20053;-83
2021/03/15 03:03:41;;;;;;;9.07;4.90;;;4.30;99.90;;;;;;4884402;29;20053;-83
2021/03/15 03:06:14;;;;;;;15.23;6.20;;;4.40;99.90;;;;;;4899793;29;20063;-83
2021/03/15 03:08:54;;;;;;;14.00;5.60;;;4.30;99.90;;;;;;4886268;29;20045;-84
2021/03/15 03:11:27;;;;;;;15.07;5.60;;;4.40;99.90;;;;;;4883840;29;20134;-83
2021/03/15 03:13:59;;;;;;;14.60;5.40;;;4.40;99.90;;;;;;4899555;29;20063;-84
2021/03/15 03:16:36;;;;;;;11.10;4.75;;;4.50;99.90;;;;;;4901048;29;20075;-84
2021/03/15 03:19:08;;;;;;;13.13;6.13;;;4.40;99.90;;;;;;4899393;29;20057;-84
2021/03/15 03:21:42;;;;;;;8.27;4.30;;;4.40;99.90;;;;;;4880522;29;20057;-84
2021/03/15 03:24:12;;;;;;;9.07;4.43;;;4.50;99.90;;;;;;4898076;29;20045;-84
2021/03/15 03:26:45;;;;;;;16.50;5.80;;;4.40;99.90;;;;;;4887598;29;20057;-84
2021/03/15 03:29:14;;;;;;;10.17;4.80;;;4.50;99.90;;;;;;4900739;29;20065;-84
2021/03/15 03:31:46;;;;;;;10.40;4.90;;;4.50;99.90;;;;;;4884845;29;20059;-83
2021/03/15 03:34:16;;;;;;;12.70;4.93;;;4.60;99.90;;;;;;4882013;29;20049;-84
2021/03/15 03:36:45;;;;;;;11.50;4.33;;;4.50;99.90;;;;;;4898457;29;20053;-84
2021/03/15 03:39:13;;;;;;;11.38;5.95;;;4.50;99.90;;;;;;4883808;29;20037;-84
2021/03/15 03:41:42;;;;;;;14.52;5.35;;;4.50;99.90;;;;;;4883475;29;20063;-84
2021/03/15 03:44:11;;;;;;;8.82;3.22;;;4.50;99.90;;;;;;4870216;29;20063;-84
2021/03/15 03:46:42;;;;;;;13.77;6.00;;;4.50;99.90;;;;;;4884667;29;20064;-83
2021/03/15 03:49:11;;;;;;;13.07;5.80;;;4.50;99.90;;;;;;4899597;29;20057;-84
2021/03/15 03:51:50;;;;;;;14.23;5.13;;;4.50;99.90;;;;;;4884020;29;20043;-83
2021/03/15 03:54:23;;;;;;;13.80;5.67;;;4.50;99.90;;;;;;4898309;29;20044;-84
2021/03/15 03:56:54;;;;;;;10.60;4.97;;;4.40;99.90;;;;;;4884636;29;20052;-83
2021/03/15 03:59:25;;;;;;;6.00;3.00;;;4.50;99.90;;;;;;4898004;29;20053;-83
2021/03/15 04:01:58;;;;;;;11.57;4.57;;;4.50;99.90;;;;;;4879824;29;20053;-84
2021/03/15 04:04:32;;;;;;;7.68;4.60;;;4.40;99.90;;;;;;4896501;29;20045;-83
2021/03/15 04:07:01;;;;;;;10.33;5.03;;;4.40;99.90;;;;;;4880329;29;20052;-83
2021/03/15 04:09:32;;;;;;;12.00;5.27;;;4.40;99.90;;;;;;4884209;29;20134;-82
2021/03/15 04:12:03;;;;;;;11.80;5.27;;;4.40;99.90;;;;;;4883872;29;20078;-83
2021/03/15 04:14:36;;;;;;;13.13;5.07;;;4.40;99.90;;;;;;4900387;29;20045;-83
2021/03/15 04:17:05;;;;;;;14.20;5.20;;;4.30;99.90;;;;;;4895895;29;20057;-84
2021/03/15 04:19:37;;;;;;;6.17;3.37;;;4.40;99.90;;;;;;4894063;29;20061;-84
2021/03/15 04:22:09;;;;;;;10.90;4.23;;;4.40;99.90;;;;;;4877030;29;20052;-84
2021/03/15 04:24:39;;;;;;;9.10;4.67;;;4.40;99.90;;;;;;4878237;29;20060;-83
2021/03/15 04:27:09;;;;;;;11.60;5.87;;;4.40;99.90;;;;;;4878669;29;20391;-83
2021/03/15 04:29:38;;;;;;;11.10;5.43;;;4.50;99.90;;;;;;4878982;29;20065;-84
2021/03/15 04:32:08;;;;;;;9.73;5.20;;;4.50;99.90;;;;;;4895417;29;20057;-83
2021/03/15 04:34:37;;;;;;;11.87;4.97;;;4.50;99.90;;;;;;4893136;29;20060;-84
2021/03/15 04:37:13;;;;;;;14.68;5.20;;;4.50;99.90;;;;;;4893773;29;20079;-83
2021/03/15 04:39:41;;;;;;;9.68;4.90;;;4.50;99.90;;;;;;4877110;29;20396;-84
2021/03/15 04:42:13;;;;;;;8.90;4.25;;;4.60;99.90;;;;;;4880206;29;20083;-83
2021/03/15 04:44:43;;;;;;;13.48;5.03;;;4.50;99.90;;;;;;4880082;29;20053;-84
2021/03/15 04:47:13;;;;;;;;;;;4.50;99.90;;;;;;4896689;29;20063;-83
2021/03/15 04:49:44;;;;;;;9.50;5.57;;;4.50;99.90;;;;;;4880867;29;19923;-84
2021/03/15 04:52:14;;;;;;;14.63;5.03;;;4.50;99.90;;;;;;4894182;29;20061;-84
2021/03/15 04:54:43;;;;;;;9.17;4.97;;;4.50;99.90;;;;;;4895314;29;20064;-84
2021/03/15 04:57:14;;;;;;;13.20;5.55;;;4.50;99.90;;;;;;4895260;29;20053;-84
2021/03/15 04:59:44;;;;;;;15.13;6.70;;;4.50;99.90;;;;;;4896306;29;20060;-85
2021/03/15 05:02:20;;;;;;;10.45;5.70;;;4.50;99.90;;;;;;4892898;29;20056;-84
2021/03/15 05:04:52;;;;;;;13.23;6.18;;;4.40;99.90;;;;;;4878642;29;20056;-83
2021/03/15 05:07:21;;;;;;;18.87;7.60;;;4.40;99.90;;;;;;4894680;29;20056;-83
2021/03/15 05:09:55;;;;;;;14.20;6.43;;;4.30;99.90;;;;;;4895951;29;20063;-83
2021/03/15 05:12:25;;;;;;;12.07;6.40;;;4.30;99.90;;;;;;4897696;29;20057;-84
2021/03/15 05:14:53;;;;;;;10.97;6.27;;;4.40;99.90;;;;;;4882265;29;20053;-84
2021/03/15 05:17:24;;;;;;;11.70;4.90;;;4.30;99.90;;;;;;4899903;29;20390;-84
2021/03/15 05:19:52;;;;;;;16.07;7.00;;;4.30;99.90;;;;;;4898471;29;20053;-84
2021/03/15 05:22:37;;;;;;;13.63;6.10;;;4.20;99.90;;;;;;4884040;29;20057;-84
2021/03/15 05:25:10;;;;;;;15.17;6.23;;;4.20;99.90;;;;;;4899240;29;20053;-84
2021/03/15 05:27:40;;;;;;;17.23;6.27;;;4.20;99.90;;;;;;4900858;29;20093;-85
2021/03/15 05:30:46;;;;;;;18.23;6.63;;;4.20;99.90;;;;;;4898675;29;20071;-84
2021/03/15 05:33:19;;;;;;;14.30;6.63;;;4.10;99.90;;;;;;4882872;29;20063;-84
2021/03/15 05:35:54;;;;;;;15.20;7.22;;;4.20;99.90;;;;;;4883318;29;20063;-83
2021/03/15 05:38:23;;;;;;;14.27;6.60;;;4.20;99.90;;;;;;4900864;29;20051;-84
2021/03/15 05:41:04;;;;;;;13.27;6.25;;;4.20;99.90;;;;;;4901954;29;20056;-84
2021/03/15 05:44:17;;;;;;;17.13;6.90;;;4.30;99.90;;;;;;4900629;29;20071;-84
2021/03/15 05:47:10;;;;;;;13.50;7.13;;;4.30;99.90;;;;;;4897900;29;20057;-83
2021/03/15 05:50:22;;;;;;;17.77;8.37;;;4.40;99.90;;;;;;4899949;29;20047;-83
2021/03/15 05:53:21;;;;;;;16.73;6.55;;;4.40;99.90;;;;;;4898969;29;20057;-84
2021/03/15 05:56:20;;;;;;;21.33;7.30;;;4.40;99.90;;;;;;4882586;29;20051;-84
2021/03/15 05:59:36;;;;;;;19.20;6.60;;;4.40;99.90;;;;;;4897289;29;20060;-84
2021/03/15 06:02:20;;;;;;;16.15;7.38;;;4.40;99.90;;;;;;4872519;29;20489;-84
2021/03/15 06:05:13;;;;;;;24.43;6.33;;;4.40;99.90;;;;;;4897458;29;20052;-84
2021/03/15 06:07:50;;;;;;;16.83;7.18;;;4.40;99.90;;;;;;4900610;29;20065;-84
2021/03/15 06:10:37;;;;;;;12.33;6.03;;;4.40;99.90;;;;;;4901462;29;20061;-85
2021/03/15 06:13:16;;;;;;;21.30;7.40;;;4.40;99.90;;;;;;4899281;29;20053;-84
2021/03/15 06:15:52;;;;;;;15.00;6.27;;;4.30;99.90;;;;;;4898727;29;20068;-84
2021/03/15 06:18:28;;;;;;;18.40;6.30;;;4.30;99.90;;;;;;4884548;29;20403;-84
2021/03/15 06:21:03;;;;;;;10.47;5.63;;;4.30;99.90;;;;;;4898047;29;20065;-82
2021/03/15 06:23:32;;;;;;;12.63;5.67;;;4.30;99.90;;;;;;4897569;29;20053;-83
2021/03/15 06:26:02;;;;;;;12.15;5.60;;;4.30;99.90;;;;;;4881635;29;20075;-84
2021/03/15 06:28:32;;;;;;;10.50;6.47;;;4.30;99.90;;;;;;4884206;29;20061;-84
2021/03/15 06:31:09;;;;;;;9.23;4.30;;;4.30;99.90;;;;;;4885017;29;20392;-84
2021/03/15 06:33:41;;;;;;;11.43;4.53;;;4.30;99.90;;;;;;4897732;29;20053;-83
2021/03/15 06:36:14;;;;;;;16.10;7.00;;;4.30;99.90;;;;;;4884278;29;20388;-84
2021/03/15 06:38:48;;;;;;;8.60;3.70;;;4.30;99.90;;;;;;4897155;29;20135;-84
2021/03/15 06:41:16;;;;;;;;;;;4.30;99.90;;;;;;4881829;29;20057;-84
2021/03/15 06:43:45;;;;;;;10.70;3.80;;;4.30;99.90;;;;;;4899617;29;20025;-83
2021/03/15 06:46:16;;;;;;;11.90;5.70;;;4.30;99.90;;;;;;4886594;29;20033;-83
2021/03/15 06:48:48;;;;;;;12.23;5.20;;;4.20;99.90;;;;;;4884992;29;20067;-84
2021/03/15 06:51:20;;;;;;;7.00;3.43;;;4.20;99.90;;;;;;4900906;29;20060;-84
2021/03/15 06:53:51;;;;;;;12.53;5.47;;;4.20;99.90;;;;;;4883449;29;20405;-83
2021/03/15 06:56:21;;;;;;;13.70;5.87;;;4.10;99.90;;;;;;4895584;29;20464;-83
2021/03/15 06:58:51;;;;;;;15.23;6.10;;;4.10;99.90;;;;;;4898943;29;20075;-84
2021/03/15 07:01:25;;;;;;;12.97;5.93;;;4.00;99.90;;;;;;4900036;29;20056;-83
2021/03/15 07:04:12;;;;;;;11.67;6.57;;;4.10;99.90;;;;;;4884369;29;20053;-84
2021/03/15 07:06:42;;;;;;;16.40;7.87;;;4.10;99.90;;;;;;4880057;29;20067;-84
2021/03/15 07:09:11;;;;;;;10.97;4.33;;;4.00;99.90;;;;;;4893038;29;20053;-84
2021/03/15 07:11:39;;;;;;;15.37;7.23;;;3.90;99.90;;;;;;4883753;29;20618;-84
2021/03/15 07:14:33;;;;;;;22.93;9.10;;;3.90;99.90;;;;;;4898649;29;20061;-84
2021/03/15 07:17:21;;;;;;;17.57;6.73;;;3.90;99.90;;;;;;4884046;29;20060;-84
2021/03/15 07:19:55;;;;;;;12.77;7.00;;;3.90;99.90;;;;;;4885702;29;20067;-83
2021/03/15 07:22:52;;;;;;;25.53;8.03;;;3.90;99.90;;;;;;4887921;29;20063;-85
2021/03/15 07:25:34;;;;;;;24.07;8.20;;;3.80;99.90;;;;;;4902391;29;20053;-85
2021/03/15 07:28:12;;;;;;;22.73;9.47;;;3.80;99.90;;;;;;4887365;29;20041;-84
2021/03/15 07:30:49;;;;;;;13.60;5.43;;;3.90;99.90;;;;;;4902991;29;20051;-85
2021/03/15 07:33:33;;;;;;;19.40;8.70;;;3.80;99.90;;;;;;4902114;29;20063;-84
2021/03/15 07:36:19;;;;;;;18.17;8.13;;;4.00;99.90;;;;;;4901001;29;20045;-84
2021/03/15 07:38:48;;;;;;;16.07;5.23;;;3.90;99.90;;;;;;4886503;29;20127;-85
2021/03/15 07:41:35;;;;;;;11.98;5.07;;;4.00;99.90;;;;;;4901818;29;20057;-84
2021/03/15 07:44:21;;;;;;;11.60;6.23;;;3.90;99.90;;;;;;4887215;29;20037;-85
2021/03/15 07:46:56;;;;;;;22.10;8.17;;;3.90;99.90;;;;;;4957380;23;20049;-86
2021/03/15 07:55:57;;;;;;;;;;;;;;;;;;;;;
2021/03/15 08:02:35;;;;;;;17.17;5.87;;;3.70;99.90;;;;;;4884302;29;20041;-88
2021/03/15 08:14:22;;;;;;;19.80;7.93;;;3.50;99.90;;;;;;4902891;29;20044;-86
2021/03/15 08:20:10;;;;;;;24.03;8.63;;;3.50;99.90;;;;;;5447294;23;20057;-85
2021/03/15 08:28:26;;;;;;;14.13;6.47;;;3.70;99.90;;;;;;5241323;23;20048;-87
2021/03/15 08:31:04;;;;;;;18.07;7.50;;;3.70;99.90;;;;;;5210149;23;20026;-85
2021/03/15 08:33:38;;;;;;;13.10;5.27;;;3.70;99.90;;;;;;5071355;23;20053;-86
2021/03/15 08:36:32;;;;;;;13.97;6.63;;;3.70;99.90;;;;;;4885177;29;20048;-87
2021/03/15 08:42:22;;;;;;;8.20;2.53;;;3.60;99.90;;;;;;4864746;29;20037;-88
2021/03/15 08:45:33;;;;;;;16.40;5.77;;;3.40;99.90;;;;;;4866629;29;20037;-89
2021/03/15 08:48:15;;;;;;;19.47;7.43;;;3.40;99.90;;;;;;5279481;23;20023;31
2021/03/15 08:51:05;;;;;;;14.63;6.97;;;3.50;99.90;;;;;;5320977;23;20023;-85
2021/03/15 09:00:07;;;;;;;9.67;5.10;;;3.50;99.90;;;;;;3919552;23;20220;-87
2021/03/15 09:20:42;;;;;;;15.23;7.20;;;3.90;99.90;;;;;;5658709;23;20048;-88
2021/03/15 10:17:40;;;;;;;10.00;5.70;;;4.40;99.90;;;;;;5947101;23;20921;31
2021/03/15 11:50:42;;;;;;;;;;;;;;;;;;;;;
2021/03/15 11:53:18;;;;;;;2.78;1.60;;;12.60;99.90;;;;;;4899795;29;20067;-92
2021/03/15 11:55:46;;;;;;;2.97;1.80;;;12.40;99.90;;;;;;4902281;29;20048;-94
2021/03/15 11:58:17;;;;;;;2.20;1.38;;;12.60;99.90;;;;;;5069388;23;20023;-84
2021/03/15 12:01:05;;;;;;;2.63;1.60;;;11.90;99.90;;;;;;4895964;29;20056;-89
2021/03/15 12:03:40;;;;;;;2.45;1.50;;;11.40;99.90;;;;;;4897839;29;20073;-85
2021/03/15 12:06:13;;;;;;;2.95;2.00;;;12.80;99.90;;;;;;4894129;29;20053;-84
2021/03/15 12:09:03;;;;;;;1.88;0.90;;;12.90;99.90;;;;;;4897732;29;20057;-89
2021/03/15 12:11:30;;;;;;;2.53;1.10;;;13.80;83.60;;;;;;4885590;29;20057;-89
2021/03/15 12:14:07;;;;;;;2.78;1.20;;;13.60;94.70;;;;;;4890634;29;20077;-83
2021/03/15 12:16:48;;;;;;;3.13;1.30;;;12.40;99.90;;;;;;4885365;29;20063;-85
2021/03/15 12:19:22;;;;;;;3.95;1.50;;;11.10;99.90;;;;;;4900387;29;20045;-83
2021/03/15 12:22:06;;;;;;;2.30;1.30;;;10.90;99.90;;;;;;4885061;29;20057;-84
2021/03/15 12:27:55;;;;;;;4.47;1.75;;;11.70;99.90;;;;;;5062582;23;20053;-84
2021/03/15 12:31:02;;;;;;;;;;;;;;;;;;;;;
2021/03/15 12:39:18;;;;;;;3.95;1.70;;;8.90;99.90;;;;;;5685857;23;20052;-83
2021/03/15 12:42:01;;;;;;;3.55;1.75;;;9.10;99.90;;;;;;4901552;29;20067;-83
2021/03/15 12:44:42;;;;;;;3.38;1.70;;;9.40;99.90;;;;;;5155682;23;20076;-84
2021/03/15 12:47:17;;;;;;;5.85;1.85;;;10.10;99.90;;;;;;4917795;29;20044;-83
2021/03/15 12:49:49;;;;;;;2.50;1.40;;;10.70;99.90;;;;;;4921191;29;20032;-83
2021/03/15 12:52:29;;;;;;;10.93;1.88;;;10.50;99.90;;;;;;4919088;29;20062;-84
2021/03/15 12:55:12;;;;;;;4.55;1.55;;;10.20;99.90;;;;;;4898435;29;20071;-84
2021/03/15 12:57:54;;;;;;;4.55;1.35;;;9.90;99.90;;;;;;4880539;29;20494;-83
2021/03/15 13:00:34;;;;;;;2.80;1.35;;;9.40;99.90;;;;;;4881820;29;20063;-84
2021/03/15 13:03:36;;;;;;;3.85;1.40;;;9.00;99.90;;;;;;4893110;29;20060;-83
2021/03/15 13:06:05;;;;;;;3.10;1.40;;;8.70;99.90;;;;;;4965128;23;20060;-83
2021/03/15 13:08:46;;;;;;;2.58;1.27;;;8.70;99.90;;;;;;4876463;29;20133;-83
2021/03/15 13:11:49;;;;;;;3.30;1.23;;;8.60;99.90;;;;;;4876920;29;20072;-83
2021/03/15 13:14:44;;;;;;;7.55;1.80;;;8.90;99.90;;;;;;4876681;29;20057;-82
2021/03/15 13:18:00;;;;;;;5.05;1.60;;;9.30;99.90;;;;;;4877267;29;20055;-83
2021/03/15 13:20:54;;;;;;;6.90;1.85;;;9.30;99.90;;;;;;4860534;29;20061;-83
2021/03/15 13:23:22;;;;;;;13.98;1.60;;;9.00;99.90;;;;;;4860918;29;20053;-84
2021/03/15 13:25:56;;;;;;;4.40;1.50;;;9.00;99.90;;;;;;4875845;29;20060;-83
2021/03/15 13:28:33;;;;;;;10.82;1.95;;;9.20;98.60;;;;;;4874213;29;20177;-83
2021/03/15 13:31:04;;;;;;;;;;;10.20;95.90;;;;;;4875683;29;20061;-83
2021/03/15 13:33:35;;;;;;;6.00;1.60;;;10.10;95.10;;;;;;4877811;29;19934;-83
2021/03/15 13:36:37;;;;;;;3.10;1.63;;;10.40;94.00;;;;;;4854212;29;20046;-82
2021/03/15 13:39:15;;;;;;;;;;;10.40;93.20;;;;;;4857721;29;20054;-83
2021/03/15 13:41:54;;;;;;;3.30;1.15;;;10.10;92.70;;;;;;4912739;23;19935;-83
2021/03/15 13:44:48;;;;;;;5.25;1.10;;;9.90;94.20;;;;;;4896403;29;20053;-84
2021/03/15 13:47:19;;;;;;;4.63;1.40;;;9.70;94.30;;;;;;4894754;29;20059;-83
2021/03/15 13:49:47;;;;;;;7.57;1.40;;;9.20;96.20;;;;;;4879891;29;20536;-84
2021/03/15 13:52:18;;;;;;;5.67;1.60;;;9.40;95.90;;;;;;4893577;29;20060;-82
2021/03/15 13:54:49;;;;;;;3.25;1.20;;;9.40;95.50;;;;;;4879200;29;20053;-84
2021/03/15 13:57:21;;;;;;;8.60;1.42;;;9.50;95.80;;;;;;4878655;29;20048;-83
2021/03/15 14:00:19;;;;;;;8.05;1.40;;;9.20;96.00;;;;;;4891585;29;20073;-83
2021/03/15 14:03:10;;;;;;;6.75;2.13;;;9.00;96.80;;;;;;4880421;29;20068;-84
2021/03/15 14:08:41;;;;;;;5.70;1.50;;;9.70;95.20;;;;;;5007848;23;20049;-84
2021/03/15 14:11:22;;;;;;;6.82;1.63;;;9.80;94.20;;;;;;5042998;23;20049;-84
2021/03/15 14:13:51;;;;;;;5.03;1.27;;;9.90;94.00;;;;;;4881244;29;20063;-84
2021/03/15 14:16:22;;;;;;;2.25;1.00;;;9.60;94.20;;;;;;4897019;29;20057;-83
2021/03/15 14:21:58;;;;;;;11.18;1.77;;;9.20;97.10;;;;;;4929420;23;20078;-84
2021/03/15 14:24:41;;;;;;;6.28;1.65;;;9.20;96.10;;;;;;4915963;29;20067;-81
2021/03/15 14:27:17;;;;;;;;;;;9.20;96.90;;;;;;4889275;29;20067;-84
2021/03/15 14:29:48;;;;;;;3.67;1.50;;;9.20;97.10;;;;;;4905541;29;19923;-83
2021/03/15 14:32:17;;;;;;;;;;;9.10;97.90;;;;;;4906422;29;20064;-82
2021/03/15 14:35:21;;;;;;;3.88;1.55;;;9.00;97.40;;;;;;4909962;29;19930;-82
2021/03/15 14:37:57;;;;;;;6.13;1.48;;;8.90;97.90;;;;;;4907127;29;20048;-83
2021/03/15 14:40:26;;;;;;;3.33;1.52;;;8.80;98.60;;;;;;4905660;29;20071;-85
2021/03/15 14:42:59;;;;;;;11.20;1.60;;;8.70;98.70;;;;;;4904625;29;20058;-85
2021/03/15 14:45:50;;;;;;;3.38;1.30;;;9.00;99.90;;;;;;4905142;29;20052;-84
2021/03/15 14:48:20;;;;;;;5.03;1.20;;;9.90;99.90;;;;;;4905956;29;20048;-85
2021/03/15 14:50:54;;;;;;;9.77;1.30;;;11.60;96.00;;;;;;4894496;29;20052;-89
2021/03/15 14:53:40;;;;;;;3.95;1.02;;;13.00;86.20;;;;;;4902556;29;20068;-89
2021/03/15 14:56:17;;;;;;;4.32;1.20;;;13.20;78.40;;;;;;4885410;29;20049;-88
2021/03/15 14:58:46;;;;;;;4.68;0.98;;;12.60;80.10;;;;;;4885375;29;20057;-84
2021/03/15 15:01:17;;;;;;;6.18;1.15;;;11.30;80.10;;;;;;4884223;29;20041;-83
2021/03/15 15:03:45;;;;;;;2.42;0.90;;;10.50;87.20;;;;;;4919660;29;20063;-84
2021/03/15 15:06:13;;;;;;;5.38;1.30;;;10.00;90.80;;;;;;4898597;29;20056;-84
2021/03/15 15:08:40;;;;;;;4.95;1.05;;;9.90;92.70;;;;;;4883565;29;20053;-84
2021/03/15 15:11:31;;;;;;;;;;;9.70;93.00;;;;;;4899767;29;20068;-84
2021/03/15 15:14:44;;;;;;;1.60;0.80;;;9.50;94.50;;;;;;4882692;29;19923;-83
2021/03/15 15:17:29;;;;;;;;;;;9.30;95.40;;;;;;4882303;29;20049;-83
2021/03/15 15:19:58;;;;;;;6.00;1.33;;;9.10;96.70;;;;;;4887421;29;19924;-83
2021/03/15 15:22:36;;;;;;;5.80;0.90;;;9.00;98.90;;;;;;4900515;29;20079;-83
2021/03/15 15:25:06;;;;;;;2.63;0.65;;;8.90;99.90;;;;;;4899364;29;20053;-84
2021/03/15 15:27:34;;;;;;;3.58;1.02;;;8.50;99.90;;;;;;4910641;29;20053;-82
2021/03/15 15:30:04;;;;;;;3.67;0.80;;;7.80;99.90;;;;;;4883418;29;20049;-84
2021/03/15 15:32:32;;;;;;;1.85;0.80;;;7.30;99.90;;;;;;4888680;29;20041;-84
2021/03/15 15:35:08;;;;;;;4.10;1.10;;;6.70;99.90;;;;;;4899075;29;20048;-84
2021/03/15 15:37:36;;;;;;;4.38;1.20;;;6.40;99.90;;;;;;4883580;29;20053;-83
2021/03/15 15:40:12;;;;;;;6.05;1.85;;;6.30;99.90;;;;;;4898896;29;20064;-83
2021/03/15 15:42:43;;;;;;;2.42;1.30;;;6.20;99.90;;;;;;4898351;29;20071;-84
2021/03/15 15:45:16;;;;;;;3.05;1.70;;;6.10;99.90;;;;;;4902752;29;20067;-84
2021/03/15 15:47:47;;;;;;;5.05;1.30;;;6.30;99.90;;;;;;4899367;29;20049;-83
2021/03/15 15:50:16;;;;;;;4.70;1.58;;;6.30;99.90;;;;;;4899360;29;20427;-82
2021/03/15 15:52:44;;;;;;;6.30;1.77;;;6.30;99.90;;;;;;4884417;29;20045;-84
2021/03/15 15:55:30;;;;;;;3.20;1.33;;;6.60;99.90;;;;;;4901419;29;20061;-85
2021/03/15 15:57:58;;;;;;;4.03;1.83;;;6.50;99.90;;;;;;4901082;29;20386;-84
2021/03/15 16:00:27;;;;;;;7.25;1.75;;;6.70;99.90;;;;;;4900021;29;20057;-83
2021/03/15 16:03:04;;;;;;;5.47;1.90;;;6.80;99.90;;;;;;4888016;29;20047;-86
2021/03/15 16:05:35;;;;;;;7.25;1.88;;;6.70;99.90;;;;;;4910283;23;20068;-83
2021/03/15 16:08:04;;;;;;;4.47;1.95;;;6.60;99.90;;;;;;4861083;29;20061;-85
2021/03/15 16:10:33;;;;;;;5.60;1.52;;;6.60;99.90;;;;;;4864754;29;20065;-84
2021/03/15 16:13:09;;;;;;;;;;;6.70;99.90;;;;;;4866245;29;20052;-86
2021/03/15 16:15:57;;;;;;;;;;;;;;;;;;;;;
2021/03/15 16:18:36;;;;;;;7.38;1.67;;;7.00;99.90;;;;;;4867230;29;20046;-85
2021/03/15 16:21:22;;;;;;;5.50;1.73;;;6.90;99.90;;;;;;4848352;29;20054;-84
2021/03/15 16:23:51;;;;;;;7.78;1.83;;;6.90;99.90;;;;;;4851403;29;20062;-83
2021/03/15 16:26:22;;;;;;;7.68;2.90;;;6.90;99.90;;;;;;4851985;29;20064;-83
2021/03/15 16:28:52;;;;;;;5.82;2.00;;;6.90;99.90;;;;;;4837113;29;20073;-83
2021/03/15 16:31:24;;;;;;;9.30;2.00;;;7.00;99.90;;;;;;4855746;29;20148;-84
2021/03/15 16:33:55;;;;;;;5.45;1.40;;;7.10;99.90;;;;;;4840136;29;20064;-83
2021/03/15 16:36:33;;;;;;;5.47;1.70;;;7.20;99.90;;;;;;4853358;29;20058;-83
2021/03/15 16:39:00;;;;;;;3.75;1.60;;;7.20;99.90;;;;;;4837628;29;20053;-83
2021/03/15 16:41:28;;;;;;;3.60;1.27;;;7.20;99.90;;;;;;4850614;29;20053;-83
2021/03/15 16:43:57;;;;;;;3.00;1.58;;;7.10;99.90;;;;;;4851298;29;20058;-83
2021/03/15 16:46:28;;;;;;;;;;;6.90;99.90;;;;;;4853964;29;20058;-83
2021/03/15 16:48:56;;;;;;;4.40;1.67;;;6.80;99.90;;;;;;4859109;29;19928;-84
2021/03/15 16:51:26;;;;;;;6.03;1.58;;;6.70;99.90;;;;;;4843112;29;20061;-84
2021/03/15 16:53:54;;;;;;;5.55;1.70;;;6.70;99.90;;;;;;4854376;29;20053;-83
2021/03/15 16:56:21;;;;;;;8.38;2.08;;;6.70;99.90;;;;;;4852338;29;20070;-83
2021/03/15 16:58:50;;;;;;;6.65;2.03;;;6.70;99.90;;;;;;4838045;29;20054;-83
2021/03/15 17:01:23;;;;;;;5.28;1.58;;;7.00;99.90;;;;;;4849631;29;20066;-83
2021/03/15 17:03:51;;;;;;;5.88;1.63;;;7.10;99.90;;;;;;4850177;29;20062;-83
2021/03/15 17:06:19;;;;;;;6.85;2.75;;;7.00;99.90;;;;;;4834470;29;20066;-83
2021/03/15 17:08:46;;;;;;;6.18;1.90;;;7.00;99.90;;;;;;4837758;29;20046;-83
2021/03/15 17:11:15;;;;;;;3.28;1.10;;;6.90;99.90;;;;;;4857891;29;20050;-83
2021/03/15 17:13:45;;;;;;;;;;;6.80;99.90;;;;;;4877907;29;20057;-83
2021/03/15 17:16:14;;;;;;;4.05;1.10;;;6.90;99.90;;;;;;4856158;29;19924;-83
2021/03/15 17:18:42;;;;;;;;;;;6.70;99.90;;;;;;4854163;29;20045;-83
2021/03/15 17:21:09;;;;;;;3.25;1.08;;;6.70;99.90;;;;;;4854884;29;19924;-83
2021/03/15 17:23:39;;;;;;;5.18;0.95;;;6.60;99.90;;;;;;4840892;29;20476;-83